sensor_id;sensor_type;location;lat;lon;timestamp;P1;durP1;ratioP1;P2;durP2;ratioP2
51529;SDS011;37613;51.788;21.582;2022-08-01T00:03:49;10.50;;;6.10;;
51529;SDS011;37613;51.788;21.582;2022-08-01T00:07:51;9.20;;;6.30;;
51529;SDS011;37613;51.788;21.582;2022-08-01T00:11:53;10.50;;;5.90;;
51529;SDS011;37613;51.788;21.582;2022-08-01T00:15:55;8.80;;;5.70;;
51529;SDS011;37613;51.788;21.582;2022-08-01T00:19:57;7.10;;;5.70;;
51529;SDS011;37613;51.788;21.582;2022-08-01T00:23:59;7.60;;;6.90;;
51529;SDS011;37613;51.788;21.582;2022-08-01T00:28:01;11.90;;;8.70;;
51529;SDS011;37613;51.788;21.582;2022-08-01T00:32:03;14.40;;;11.00;;
51529;SDS011;37613;51.788;21.582;2022-08-01T00:36:05;20.70;;;12.30;;
51529;SDS011;37613;51.788;21.582;2022-08-01T00:40:07;14.40;;;11.10;;
51529;SDS011;37613;51.788;21.582;2022-08-01T00:44:09;14.10;;;10.20;;
51529;SDS011;37613;51.788;21.582;2022-08-01T00:48:11;15.70;;;10.00;;
51529;SDS011;37613;51.788;21.582;2022-08-01T00:52:13;13.50;;;10.10;;
51529;SDS011;37613;51.788;21.582;2022-08-01T00:56:15;20.60;;;11.10;;
51529;SDS011;37613;51.788;21.582;2022-08-01T01:00:17;15.30;;;10.70;;
51529;SDS011;37613;51.788;21.582;2022-08-01T01:09:46;13.90;;;9.70;;
51529;SDS011;37613;51.788;21.582;2022-08-01T01:13:54;21.90;;;9.90;;
51529;SDS011;37613;51.788;21.582;2022-08-01T01:18:20;12.80;;;9.70;;
51529;SDS011;37613;51.788;21.582;2022-08-01T01:26:43;13.50;;;9.80;;
51529;SDS011;37613;51.788;21.582;2022-08-01T01:30:49;14.70;;;9.40;;
51529;SDS011;37613;51.788;21.582;2022-08-01T01:34:53;12.20;;;9.40;;
51529;SDS011;37613;51.788;21.582;2022-08-01T01:38:56;14.50;;;10.30;;
51529;SDS011;37613;51.788;21.582;2022-08-01T01:47:01;13.00;;;10.50;;
51529;SDS011;37613;51.788;21.582;2022-08-01T01:51:04;11.80;;;9.50;;
51529;SDS011;37613;51.788;21.582;2022-08-01T01:55:07;14.30;;;10.80;;
51529;SDS011;37613;51.788;21.582;2022-08-01T01:59:11;16.00;;;10.10;;
51529;SDS011;37613;51.788;21.582;2022-08-01T02:03:14;14.70;;;10.20;;
51529;SDS011;37613;51.788;21.582;2022-08-01T02:07:20;18.20;;;9.70;;
51529;SDS011;37613;51.788;21.582;2022-08-01T02:11:25;11.70;;;9.60;;
51529;SDS011;37613;51.788;21.582;2022-08-01T02:15:28;12.20;;;9.50;;
51529;SDS011;37613;51.788;21.582;2022-08-01T02:19:33;14.40;;;9.40;;
51529;SDS011;37613;51.788;21.582;2022-08-01T02:23:36;12.80;;;9.20;;
51529;SDS011;37613;51.788;21.582;2022-08-01T02:27:42;15.50;;;9.20;;
51529;SDS011;37613;51.788;21.582;2022-08-01T02:31:51;12.40;;;8.40;;
51529;SDS011;37613;51.788;21.582;2022-08-01T02:35:56;12.80;;;7.30;;
51529;SDS011;37613;51.788;21.582;2022-08-01T02:40:01;14.30;;;8.00;;
51529;SDS011;37613;51.788;21.582;2022-08-01T02:44:06;13.90;;;7.50;;
51529;SDS011;37613;51.788;21.582;2022-08-01T02:48:14;10.10;;;7.10;;
51529;SDS011;37613;51.788;21.582;2022-08-01T02:52:20;10.00;;;6.50;;
51529;SDS011;37613;51.788;21.582;2022-08-01T02:56:24;11.90;;;6.90;;
51529;SDS011;37613;51.788;21.582;2022-08-01T03:00:36;13.10;;;6.00;;
51529;SDS011;37613;51.788;21.582;2022-08-01T03:04:38;10.90;;;6.00;;
51529;SDS011;37613;51.788;21.582;2022-08-01T03:08:42;9.40;;;5.60;;
51529;SDS011;37613;51.788;21.582;2022-08-01T03:12:46;6.80;;;5.20;;
51529;SDS011;37613;51.788;21.582;2022-08-01T03:16:51;10.70;;;4.80;;
51529;SDS011;37613;51.788;21.582;2022-08-01T03:24:56;8.70;;;4.90;;
51529;SDS011;37613;51.788;21.582;2022-08-01T03:29:04;10.20;;;4.80;;
51529;SDS011;37613;51.788;21.582;2022-08-01T03:33:08;7.40;;;5.10;;
51529;SDS011;37613;51.788;21.582;2022-08-01T03:41:27;5.30;;;4.80;;
51529;SDS011;37613;51.788;21.582;2022-08-01T03:45:36;6.60;;;5.10;;
51529;SDS011;37613;51.788;21.582;2022-08-01T03:49:42;6.10;;;4.80;;
51529;SDS011;37613;51.788;21.582;2022-08-01T03:53:46;6.70;;;5.20;;
51529;SDS011;37613;51.788;21.582;2022-08-01T03:57:50;8.80;;;5.80;;
51529;SDS011;37613;51.788;21.582;2022-08-01T04:01:53;5.90;;;5.00;;
51529;SDS011;37613;51.788;21.582;2022-08-01T04:05:57;9.90;;;5.20;;
51529;SDS011;37613;51.788;21.582;2022-08-01T04:09:58;8.20;;;5.30;;
51529;SDS011;37613;51.788;21.582;2022-08-01T04:14:00;12.00;;;5.40;;
51529;SDS011;37613;51.788;21.582;2022-08-01T04:18:02;6.50;;;5.50;;
51529;SDS011;37613;51.788;21.582;2022-08-01T04:22:04;10.80;;;5.30;;
51529;SDS011;37613;51.788;21.582;2022-08-01T04:26:07;5.50;;;4.20;;
51529;SDS011;37613;51.788;21.582;2022-08-01T04:30:11;4.90;;;4.10;;
51529;SDS011;37613;51.788;21.582;2022-08-01T04:34:17;8.20;;;4.10;;
51529;SDS011;37613;51.788;21.582;2022-08-01T04:38:23;5.50;;;4.00;;
51529;SDS011;37613;51.788;21.582;2022-08-01T04:42:31;7.40;;;3.80;;
51529;SDS011;37613;51.788;21.582;2022-08-01T04:46:34;8.90;;;3.40;;
51529;SDS011;37613;51.788;21.582;2022-08-01T04:50:38;8.00;;;3.40;;
51529;SDS011;37613;51.788;21.582;2022-08-01T04:54:43;4.40;;;3.20;;
51529;SDS011;37613;51.788;21.582;2022-08-01T04:58:45;11.20;;;3.20;;
51529;SDS011;37613;51.788;21.582;2022-08-01T05:02:47;4.20;;;3.10;;
51529;SDS011;37613;51.788;21.582;2022-08-01T05:06:49;7.40;;;3.00;;
51529;SDS011;37613;51.788;21.582;2022-08-01T05:10:50;6.70;;;3.00;;
51529;SDS011;37613;51.788;21.582;2022-08-01T05:18:55;8.10;;;3.10;;
51529;SDS011;37613;51.788;21.582;2022-08-01T05:22:58;11.80;;;3.00;;
51529;SDS011;37613;51.788;21.582;2022-08-01T05:27:00;8.40;;;3.10;;
51529;SDS011;37613;51.788;21.582;2022-08-01T05:31:02;6.40;;;3.50;;
51529;SDS011;37613;51.788;21.582;2022-08-01T05:35:05;4.10;;;2.90;;
51529;SDS011;37613;51.788;21.582;2022-08-01T05:39:08;4.30;;;3.10;;
51529;SDS011;37613;51.788;21.582;2022-08-01T05:43:10;7.00;;;3.20;;
51529;SDS011;37613;51.788;21.582;2022-08-01T05:47:12;3.40;;;3.10;;
51529;SDS011;37613;51.788;21.582;2022-08-01T05:51:13;4.10;;;3.20;;
51529;SDS011;37613;51.788;21.582;2022-08-01T05:55:15;5.00;;;3.10;;
51529;SDS011;37613;51.788;21.582;2022-08-01T05:59:17;5.20;;;3.80;;
51529;SDS011;37613;51.788;21.582;2022-08-01T06:03:20;5.40;;;3.30;;
51529;SDS011;37613;51.788;21.582;2022-08-01T06:11:25;6.70;;;2.90;;
51529;SDS011;37613;51.788;21.582;2022-08-01T06:15:26;3.70;;;3.40;;
51529;SDS011;37613;51.788;21.582;2022-08-01T06:19:28;4.60;;;2.70;;
51529;SDS011;37613;51.788;21.582;2022-08-01T06:23:30;3.10;;;2.60;;
51529;SDS011;37613;51.788;21.582;2022-08-01T06:27:35;2.80;;;2.60;;
51529;SDS011;37613;51.788;21.582;2022-08-01T06:31:37;3.50;;;2.80;;
51529;SDS011;37613;51.788;21.582;2022-08-01T06:35:38;3.60;;;2.40;;
51529;SDS011;37613;51.788;21.582;2022-08-01T06:39:40;3.00;;;2.50;;
51529;SDS011;37613;51.788;21.582;2022-08-01T06:43:43;8.60;;;3.10;;
51529;SDS011;37613;51.788;21.582;2022-08-01T06:47:45;4.20;;;2.80;;
51529;SDS011;37613;51.788;21.582;2022-08-01T06:51:47;3.10;;;2.40;;
51529;SDS011;37613;51.788;21.582;2022-08-01T06:55:48;8.10;;;2.70;;
51529;SDS011;37613;51.788;21.582;2022-08-01T06:59:50;5.40;;;2.00;;
51529;SDS011;37613;51.788;21.582;2022-08-01T07:03:52;4.20;;;2.70;;
51529;SDS011;37613;51.788;21.582;2022-08-01T07:07:54;3.20;;;2.00;;
51529;SDS011;37613;51.788;21.582;2022-08-01T07:11:56;4.70;;;1.50;;
51529;SDS011;37613;51.788;21.582;2022-08-01T07:15:58;4.40;;;2.00;;
51529;SDS011;37613;51.788;21.582;2022-08-01T07:20:01;5.20;;;1.70;;
51529;SDS011;37613;51.788;21.582;2022-08-01T07:28:04;1.60;;;1.50;;
51529;SDS011;37613;51.788;21.582;2022-08-01T07:32:06;2.70;;;1.80;;
51529;SDS011;37613;51.788;21.582;2022-08-01T07:36:08;4.70;;;1.60;;
51529;SDS011;37613;51.788;21.582;2022-08-01T07:40:10;2.70;;;1.70;;
51529;SDS011;37613;51.788;21.582;2022-08-01T07:44:12;1.70;;;1.60;;
51529;SDS011;37613;51.788;21.582;2022-08-01T07:48:15;4.20;;;1.70;;
51529;SDS011;37613;51.788;21.582;2022-08-01T07:52:17;3.40;;;2.20;;
51529;SDS011;37613;51.788;21.582;2022-08-01T07:56:19;2.30;;;2.00;;
51529;SDS011;37613;51.788;21.582;2022-08-01T08:00:21;2.50;;;1.60;;
51529;SDS011;37613;51.788;21.582;2022-08-01T08:04:22;3.30;;;1.50;;
51529;SDS011;37613;51.788;21.582;2022-08-01T08:08:24;2.70;;;1.70;;
51529;SDS011;37613;51.788;21.582;2022-08-01T08:12:26;1.60;;;1.50;;
51529;SDS011;37613;51.788;21.582;2022-08-01T08:16:28;3.40;;;1.30;;
51529;SDS011;37613;51.788;21.582;2022-08-01T08:20:30;5.10;;;1.50;;
51529;SDS011;37613;51.788;21.582;2022-08-01T08:24:32;3.50;;;1.40;;
51529;SDS011;37613;51.788;21.582;2022-08-01T08:28:34;2.40;;;1.10;;
51529;SDS011;37613;51.788;21.582;2022-08-01T08:32:39;4.00;;;0.90;;
51529;SDS011;37613;51.788;21.582;2022-08-01T08:40:43;1.90;;;1.00;;
51529;SDS011;37613;51.788;21.582;2022-08-01T08:48:47;1.70;;;0.70;;
51529;SDS011;37613;51.788;21.582;2022-08-01T08:52:50;2.20;;;1.60;;
51529;SDS011;37613;51.788;21.582;2022-08-01T08:56:56;2.80;;;1.40;;
51529;SDS011;37613;51.788;21.582;2022-08-01T09:00:59;5.10;;;1.00;;
51529;SDS011;37613;51.788;21.582;2022-08-01T09:05:01;1.10;;;1.10;;
51529;SDS011;37613;51.788;21.582;2022-08-01T09:09:04;1.70;;;1.00;;
51529;SDS011;37613;51.788;21.582;2022-08-01T09:13:12;0.80;;;0.70;;
51529;SDS011;37613;51.788;21.582;2022-08-01T09:17:15;1.60;;;0.80;;
51529;SDS011;37613;51.788;21.582;2022-08-01T09:25:21;0.80;;;0.70;;
51529;SDS011;37613;51.788;21.582;2022-08-01T09:29:25;4.50;;;1.40;;
51529;SDS011;37613;51.788;21.582;2022-08-01T09:33:46;1.00;;;0.90;;
51529;SDS011;37613;51.788;21.582;2022-08-01T09:38:14;1.00;;;0.90;;
51529;SDS011;37613;51.788;21.582;2022-08-01T09:42:22;1.70;;;1.00;;
51529;SDS011;37613;51.788;21.582;2022-08-01T09:46:28;4.10;;;1.10;;
51529;SDS011;37613;51.788;21.582;2022-08-01T09:50:38;1.80;;;1.00;;
51529;SDS011;37613;51.788;21.582;2022-08-01T09:54:52;1.60;;;1.10;;
51529;SDS011;37613;51.788;21.582;2022-08-01T09:58:58;3.80;;;1.00;;
51529;SDS011;37613;51.788;21.582;2022-08-01T10:03:18;2.10;;;1.20;;
51529;SDS011;37613;51.788;21.582;2022-08-01T10:07:24;1.80;;;1.50;;
51529;SDS011;37613;51.788;21.582;2022-08-01T10:11:28;3.80;;;1.30;;
51529;SDS011;37613;51.788;21.582;2022-08-01T10:15:33;2.50;;;1.50;;
51529;SDS011;37613;51.788;21.582;2022-08-01T10:19:37;1.60;;;1.20;;
51529;SDS011;37613;51.788;21.582;2022-08-01T10:23:42;3.00;;;1.10;;
51529;SDS011;37613;51.788;21.582;2022-08-01T10:27:46;2.30;;;1.20;;
51529;SDS011;37613;51.788;21.582;2022-08-01T10:31:59;3.50;;;1.20;;
51529;SDS011;37613;51.788;21.582;2022-08-01T10:36:01;2.60;;;1.10;;
51529;SDS011;37613;51.788;21.582;2022-08-01T10:40:04;2.60;;;1.20;;
51529;SDS011;37613;51.788;21.582;2022-08-01T10:44:09;1.10;;;1.00;;
51529;SDS011;37613;51.788;21.582;2022-08-01T10:52:16;2.20;;;1.20;;
51529;SDS011;37613;51.788;21.582;2022-08-01T10:56:19;1.70;;;1.00;;
51529;SDS011;37613;51.788;21.582;2022-08-01T11:00:23;1.40;;;0.90;;
51529;SDS011;37613;51.788;21.582;2022-08-01T11:04:39;2.90;;;2.20;;
51529;SDS011;37613;51.788;21.582;2022-08-01T11:09:18;2.30;;;2.10;;
51529;SDS011;37613;51.788;21.582;2022-08-01T11:18:33;1.50;;;1.40;;
51529;SDS011;37613;51.788;21.582;2022-08-01T11:31:33;3.80;;;1.00;;
51529;SDS011;37613;51.788;21.582;2022-08-01T11:39:38;2.00;;;1.10;;
51529;SDS011;37613;51.788;21.582;2022-08-01T11:43:58;3.40;;;1.30;;
51529;SDS011;37613;51.788;21.582;2022-08-01T11:48:01;1.10;;;0.70;;
51529;SDS011;37613;51.788;21.582;2022-08-01T11:52:28;0.90;;;0.80;;
51529;SDS011;37613;51.788;21.582;2022-08-01T11:56:34;1.50;;;1.10;;
51529;SDS011;37613;51.788;21.582;2022-08-01T12:04:45;1.90;;;1.00;;
51529;SDS011;37613;51.788;21.582;2022-08-01T12:08:53;1.50;;;1.00;;
51529;SDS011;37613;51.788;21.582;2022-08-01T12:12:58;0.90;;;0.80;;
51529;SDS011;37613;51.788;21.582;2022-08-01T12:17:01;1.60;;;0.90;;
51529;SDS011;37613;51.788;21.582;2022-08-01T12:21:03;0.90;;;0.90;;
51529;SDS011;37613;51.788;21.582;2022-08-01T12:25:10;4.60;;;1.00;;
51529;SDS011;37613;51.788;21.582;2022-08-01T12:29:30;1.10;;;0.80;;
51529;SDS011;37613;51.788;21.582;2022-08-01T12:33:33;2.00;;;1.20;;
51529;SDS011;37613;51.788;21.582;2022-08-01T12:37:39;0.80;;;0.80;;
51529;SDS011;37613;51.788;21.582;2022-08-01T12:45:50;1.60;;;1.40;;
51529;SDS011;37613;51.788;21.582;2022-08-01T12:49:54;1.40;;;1.00;;
51529;SDS011;37613;51.788;21.582;2022-08-01T12:54:01;1.40;;;1.00;;
51529;SDS011;37613;51.788;21.582;2022-08-01T12:58:07;1.20;;;1.00;;
51529;SDS011;37613;51.788;21.582;2022-08-01T13:02:11;1.30;;;1.00;;
51529;SDS011;37613;51.788;21.582;2022-08-01T13:06:14;1.20;;;1.10;;
51529;SDS011;37613;51.788;21.582;2022-08-01T13:10:28;1.60;;;0.90;;
51529;SDS011;37613;51.788;21.582;2022-08-01T13:14:31;1.20;;;1.10;;
51529;SDS011;37613;51.788;21.582;2022-08-01T13:18:34;1.40;;;1.10;;
51529;SDS011;37613;51.788;21.582;2022-08-01T13:22:37;2.50;;;1.10;;
51529;SDS011;37613;51.788;21.582;2022-08-01T13:30:52;1.40;;;1.40;;
51529;SDS011;37613;51.788;21.582;2022-08-01T13:35:07;3.20;;;1.70;;
51529;SDS011;37613;51.788;21.582;2022-08-01T13:39:10;6.40;;;1.30;;
51529;SDS011;37613;51.788;21.582;2022-08-01T13:43:30;4.30;;;1.20;;
51529;SDS011;37613;51.788;21.582;2022-08-01T13:47:32;1.40;;;1.30;;
51529;SDS011;37613;51.788;21.582;2022-08-01T13:51:35;4.90;;;1.90;;
51529;SDS011;37613;51.788;21.582;2022-08-01T13:55:37;2.10;;;1.80;;
51529;SDS011;37613;51.788;21.582;2022-08-01T13:59:39;1.40;;;1.30;;
51529;SDS011;37613;51.788;21.582;2022-08-01T14:07:43;1.80;;;1.50;;
51529;SDS011;37613;51.788;21.582;2022-08-01T14:11:45;2.50;;;1.90;;
51529;SDS011;37613;51.788;21.582;2022-08-01T14:15:47;2.70;;;2.00;;
51529;SDS011;37613;51.788;21.582;2022-08-01T14:19:51;2.80;;;2.10;;
51529;SDS011;37613;51.788;21.582;2022-08-01T14:23:53;2.10;;;2.00;;
51529;SDS011;37613;51.788;21.582;2022-08-01T14:27:55;5.50;;;1.70;;
51529;SDS011;37613;51.788;21.582;2022-08-01T14:31:56;1.80;;;1.70;;
51529;SDS011;37613;51.788;21.582;2022-08-01T14:35:58;2.10;;;1.90;;
51529;SDS011;37613;51.788;21.582;2022-08-01T14:40:00;4.30;;;2.00;;
51529;SDS011;37613;51.788;21.582;2022-08-01T14:44:08;2.90;;;2.10;;
51529;SDS011;37613;51.788;21.582;2022-08-01T14:48:10;2.80;;;2.20;;
51529;SDS011;37613;51.788;21.582;2022-08-01T14:52:12;3.60;;;1.80;;
51529;SDS011;37613;51.788;21.582;2022-08-01T14:56:14;2.10;;;2.00;;
51529;SDS011;37613;51.788;21.582;2022-08-01T15:00:18;2.20;;;1.50;;
51529;SDS011;37613;51.788;21.582;2022-08-01T15:04:21;2.10;;;1.90;;
51529;SDS011;37613;51.788;21.582;2022-08-01T15:08:23;2.80;;;1.60;;
51529;SDS011;37613;51.788;21.582;2022-08-01T15:12:24;4.30;;;1.50;;
51529;SDS011;37613;51.788;21.582;2022-08-01T15:16:26;1.90;;;1.50;;
51529;SDS011;37613;51.788;21.582;2022-08-01T15:20:31;1.80;;;1.50;;
51529;SDS011;37613;51.788;21.582;2022-08-01T15:24:34;2.20;;;1.50;;
51529;SDS011;37613;51.788;21.582;2022-08-01T15:28:36;1.50;;;1.40;;
51529;SDS011;37613;51.788;21.582;2022-08-01T15:32:40;3.40;;;1.10;;
51529;SDS011;37613;51.788;21.582;2022-08-01T15:36:42;2.10;;;1.20;;
51529;SDS011;37613;51.788;21.582;2022-08-01T15:40:47;4.30;;;1.50;;
51529;SDS011;37613;51.788;21.582;2022-08-01T15:44:48;4.60;;;1.20;;
51529;SDS011;37613;51.788;21.582;2022-08-01T15:48:50;1.20;;;1.10;;
51529;SDS011;37613;51.788;21.582;2022-08-01T15:52:52;3.10;;;1.00;;
51529;SDS011;37613;51.788;21.582;2022-08-01T15:56:54;1.30;;;0.90;;
51529;SDS011;37613;51.788;21.582;2022-08-01T16:00:56;2.90;;;1.60;;
51529;SDS011;37613;51.788;21.582;2022-08-01T16:04:58;1.90;;;1.00;;
51529;SDS011;37613;51.788;21.582;2022-08-01T16:08:59;2.70;;;1.00;;
51529;SDS011;37613;51.788;21.582;2022-08-01T16:13:01;1.80;;;1.00;;
51529;SDS011;37613;51.788;21.582;2022-08-01T16:17:03;1.90;;;1.20;;
51529;SDS011;37613;51.788;21.582;2022-08-01T16:21:05;2.60;;;1.00;;
51529;SDS011;37613;51.788;21.582;2022-08-01T16:25:10;4.00;;;1.20;;
51529;SDS011;37613;51.788;21.582;2022-08-01T16:29:13;1.00;;;0.90;;
51529;SDS011;37613;51.788;21.582;2022-08-01T16:33:15;3.80;;;0.90;;
51529;SDS011;37613;51.788;21.582;2022-08-01T16:37:17;1.70;;;1.40;;
51529;SDS011;37613;51.788;21.582;2022-08-01T16:45:21;3.70;;;1.10;;
51529;SDS011;37613;51.788;21.582;2022-08-01T16:53:25;2.30;;;1.10;;
51529;SDS011;37613;51.788;21.582;2022-08-01T16:57:27;3.80;;;0.90;;
51529;SDS011;37613;51.788;21.582;2022-08-01T17:01:35;1.90;;;0.90;;
51529;SDS011;37613;51.788;21.582;2022-08-01T17:05:37;2.50;;;1.10;;
51529;SDS011;37613;51.788;21.582;2022-08-01T17:09:40;3.60;;;1.40;;
51529;SDS011;37613;51.788;21.582;2022-08-01T17:13:42;4.90;;;1.60;;
51529;SDS011;37613;51.788;21.582;2022-08-01T17:21:46;1.60;;;1.50;;
51529;SDS011;37613;51.788;21.582;2022-08-01T17:25:47;1.40;;;1.20;;
51529;SDS011;37613;51.788;21.582;2022-08-01T17:29:49;2.10;;;1.10;;
51529;SDS011;37613;51.788;21.582;2022-08-01T17:33:51;2.90;;;1.40;;
51529;SDS011;37613;51.788;21.582;2022-08-01T17:37:53;3.20;;;1.30;;
51529;SDS011;37613;51.788;21.582;2022-08-01T17:41:55;4.60;;;1.30;;
51529;SDS011;37613;51.788;21.582;2022-08-01T17:45:57;3.40;;;1.50;;
51529;SDS011;37613;51.788;21.582;2022-08-01T17:49:58;1.80;;;1.40;;
51529;SDS011;37613;51.788;21.582;2022-08-01T17:54:04;2.10;;;1.30;;
51529;SDS011;37613;51.788;21.582;2022-08-01T17:58:07;1.50;;;1.40;;
51529;SDS011;37613;51.788;21.582;2022-08-01T18:02:10;1.60;;;1.50;;
51529;SDS011;37613;51.788;21.582;2022-08-01T18:06:12;2.80;;;1.90;;
51529;SDS011;37613;51.788;21.582;2022-08-01T18:10:17;3.80;;;1.60;;
51529;SDS011;37613;51.788;21.582;2022-08-01T18:14:19;1.60;;;1.30;;
51529;SDS011;37613;51.788;21.582;2022-08-01T18:18:21;2.00;;;1.50;;
51529;SDS011;37613;51.788;21.582;2022-08-01T18:22:23;3.20;;;1.90;;
51529;SDS011;37613;51.788;21.582;2022-08-01T18:26:25;2.40;;;1.50;;
51529;SDS011;37613;51.788;21.582;2022-08-01T18:30:28;3.10;;;1.60;;
51529;SDS011;37613;51.788;21.582;2022-08-01T18:34:30;3.30;;;1.50;;
51529;SDS011;37613;51.788;21.582;2022-08-01T18:38:32;4.30;;;1.70;;
51529;SDS011;37613;51.788;21.582;2022-08-01T18:42:34;2.20;;;1.50;;
51529;SDS011;37613;51.788;21.582;2022-08-01T18:46:36;1.90;;;1.80;;
51529;SDS011;37613;51.788;21.582;2022-08-01T18:50:39;2.70;;;1.90;;
51529;SDS011;37613;51.788;21.582;2022-08-01T18:54:41;6.30;;;1.80;;
51529;SDS011;37613;51.788;21.582;2022-08-01T18:58:43;3.90;;;2.70;;
51529;SDS011;37613;51.788;21.582;2022-08-01T19:02:44;2.80;;;2.30;;
51529;SDS011;37613;51.788;21.582;2022-08-01T19:06:46;5.00;;;2.90;;
51529;SDS011;37613;51.788;21.582;2022-08-01T19:10:48;6.10;;;3.80;;
51529;SDS011;37613;51.788;21.582;2022-08-01T19:14:50;6.00;;;4.00;;
51529;SDS011;37613;51.788;21.582;2022-08-01T19:18:52;8.30;;;4.70;;
51529;SDS011;37613;51.788;21.582;2022-08-01T19:22:54;15.90;;;7.00;;
51529;SDS011;37613;51.788;21.582;2022-08-01T19:26:57;12.10;;;8.10;;
51529;SDS011;37613;51.788;21.582;2022-08-01T19:31:02;17.80;;;10.30;;
51529;SDS011;37613;51.788;21.582;2022-08-01T19:35:06;18.70;;;12.80;;
51529;SDS011;37613;51.788;21.582;2022-08-01T19:39:14;18.60;;;11.00;;
51529;SDS011;37613;51.788;21.582;2022-08-01T19:43:17;24.10;;;11.30;;
51529;SDS011;37613;51.788;21.582;2022-08-01T19:47:21;17.10;;;11.30;;
51529;SDS011;37613;51.788;21.582;2022-08-01T19:51:23;16.80;;;11.40;;
51529;SDS011;37613;51.788;21.582;2022-08-01T19:55:28;20.00;;;10.90;;
51529;SDS011;37613;51.788;21.582;2022-08-01T19:59:32;37.90;;;20.60;;
51529;SDS011;37613;51.788;21.582;2022-08-01T20:03:35;26.30;;;14.90;;
51529;SDS011;37613;51.788;21.582;2022-08-01T20:07:37;25.50;;;14.90;;
51529;SDS011;37613;51.788;21.582;2022-08-01T20:11:47;31.60;;;17.60;;
51529;SDS011;37613;51.788;21.582;2022-08-01T20:15:51;45.90;;;22.60;;
51529;SDS011;37613;51.788;21.582;2022-08-01T20:19:54;37.10;;;20.30;;
51529;SDS011;37613;51.788;21.582;2022-08-01T20:23:56;31.10;;;17.10;;
51529;SDS011;37613;51.788;21.582;2022-08-01T20:28:01;20.20;;;12.10;;
51529;SDS011;37613;51.788;21.582;2022-08-01T20:32:05;17.10;;;11.50;;
51529;SDS011;37613;51.788;21.582;2022-08-01T20:36:08;20.80;;;11.00;;
51529;SDS011;37613;51.788;21.582;2022-08-01T20:40:11;21.70;;;12.40;;
51529;SDS011;37613;51.788;21.582;2022-08-01T20:44:13;22.90;;;13.60;;
51529;SDS011;37613;51.788;21.582;2022-08-01T20:48:16;15.70;;;11.00;;
51529;SDS011;37613;51.788;21.582;2022-08-01T20:52:18;17.40;;;9.90;;
51529;SDS011;37613;51.788;21.582;2022-08-01T21:08:53;19.90;;;11.60;;
51529;SDS011;37613;51.788;21.582;2022-08-01T21:13:02;35.70;;;18.10;;
51529;SDS011;37613;51.788;21.582;2022-08-01T21:17:09;31.80;;;16.00;;
51529;SDS011;37613;51.788;21.582;2022-08-01T21:21:17;25.90;;;13.40;;
51529;SDS011;37613;51.788;21.582;2022-08-01T21:25:25;19.70;;;11.50;;
51529;SDS011;37613;51.788;21.582;2022-08-01T21:29:32;22.70;;;11.70;;
51529;SDS011;37613;51.788;21.582;2022-08-01T21:33:35;23.10;;;10.90;;
51529;SDS011;37613;51.788;21.582;2022-08-01T21:37:41;22.90;;;11.30;;
51529;SDS011;37613;51.788;21.582;2022-08-01T21:41:43;20.70;;;11.40;;
51529;SDS011;37613;51.788;21.582;2022-08-01T21:45:46;22.20;;;12.10;;
51529;SDS011;37613;51.788;21.582;2022-08-01T21:49:49;22.60;;;12.30;;
51529;SDS011;37613;51.788;21.582;2022-08-01T21:53:55;16.80;;;10.30;;
51529;SDS011;37613;51.788;21.582;2022-08-01T21:58:49;18.60;;;11.20;;
51529;SDS011;37613;51.788;21.582;2022-08-01T22:07:14;14.00;;;8.60;;
51529;SDS011;37613;51.788;21.582;2022-08-01T22:11:22;14.20;;;8.60;;
51529;SDS011;37613;51.788;21.582;2022-08-01T22:15:28;16.90;;;9.00;;
51529;SDS011;37613;51.788;21.582;2022-08-01T22:19:31;18.20;;;8.20;;
51529;SDS011;37613;51.788;21.582;2022-08-01T22:23:36;18.00;;;7.60;;
51529;SDS011;37613;51.788;21.582;2022-08-01T22:27:39;15.20;;;8.90;;
51529;SDS011;37613;51.788;21.582;2022-08-01T22:31:42;12.00;;;7.00;;
51529;SDS011;37613;51.788;21.582;2022-08-01T22:35:49;14.90;;;7.80;;
51529;SDS011;37613;51.788;21.582;2022-08-01T22:39:53;16.80;;;8.70;;
51529;SDS011;37613;51.788;21.582;2022-08-01T22:44:02;12.90;;;8.10;;
51529;SDS011;37613;51.788;21.582;2022-08-01T22:52:27;13.50;;;8.40;;
51529;SDS011;37613;51.788;21.582;2022-08-01T22:56:35;13.30;;;7.70;;
51529;SDS011;37613;51.788;21.582;2022-08-01T23:00:39;10.20;;;7.00;;
51529;SDS011;37613;51.788;21.582;2022-08-01T23:08:49;13.70;;;7.80;;
51529;SDS011;37613;51.788;21.582;2022-08-01T23:12:54;15.10;;;8.00;;
51529;SDS011;37613;51.788;21.582;2022-08-01T23:16:57;15.40;;;7.80;;
51529;SDS011;37613;51.788;21.582;2022-08-01T23:21:03;13.90;;;7.80;;
51529;SDS011;37613;51.788;21.582;2022-08-01T23:25:09;14.30;;;7.40;;
51529;SDS011;37613;51.788;21.582;2022-08-01T23:29:13;15.10;;;7.60;;
51529;SDS011;37613;51.788;21.582;2022-08-01T23:33:14;11.10;;;8.00;;
51529;SDS011;37613;51.788;21.582;2022-08-01T23:37:16;15.20;;;7.50;;
51529;SDS011;37613;51.788;21.582;2022-08-01T23:45:24;11.20;;;7.30;;
51529;SDS011;37613;51.788;21.582;2022-08-01T23:49:26;12.50;;;7.60;;
51529;SDS011;37613;51.788;21.582;2022-08-01T23:53:28;14.60;;;7.70;;
51529;SDS011;37613;51.788;21.582;2022-08-01T23:57:30;14.30;;;8.20;;
